Time;durP1;ratioP1;P1;durP2;ratioP2;P2;SDS_P1;SDS_P2;PMS_P1;PMS_P2;Temp;Humidity;BMP_temperature;BMP_pressure;BME280_temperature;BME280_humidity;BME280_pressure;Samples;Min_cycle;Max_cycle;Signal;HPM_P1;HPM_P2
2022/05/30 00:00:25;;;;;;;;;3.00;3.00;;;;;12.31;57.17;100705.88;5032955;27;45743;-65
2022/05/30 00:02:51;;;;;;;;;3.67;3.00;;;;;12.28;56.86;100696.25;5041188;27;46598;-64
2022/05/30 00:05:18;;;;;;;;;6.33;6.33;;;;;12.33;57.62;100707.50;5042435;27;45569;-65
2022/05/30 00:07:43;;;;;;;;;3.67;3.67;;;;;12.32;57.38;100708.44;5033887;27;45529;-68
2022/05/30 00:10:10;;;;;;;;;6.00;4.00;;;;;12.37;57.03;100706.38;5034826;27;45319;-66
2022/05/30 00:12:37;;;;;;;;;4.00;4.00;;;;;12.35;57.48;100699.41;5031690;27;45542;-66
2022/05/30 00:15:04;;;;;;;;;4.00;4.00;;;;;12.35;57.62;100707.41;5027404;27;45566;-67
2022/05/30 00:17:30;;;;;;;;;2.50;1.50;;;;;12.29;58.19;100700.66;5018734;27;45479;-66
2022/05/30 00:19:55;;;;;;;;;3.00;3.00;;;;;12.26;58.23;100694.66;5034551;28;45340;-67
2022/05/30 00:22:21;;;;;;;;;2.33;2.00;;;;;12.27;58.09;100697.22;5032270;27;45638;-68
2022/05/30 00:24:46;;;;;;;;;2.33;2.33;;;;;12.22;58.02;100687.78;5026443;27;45674;-67
2022/05/30 00:27:12;;;;;;;;;2.33;2.33;;;;;12.20;58.55;100695.88;5033809;27;45379;-66
2022/05/30 00:29:39;;;;;;;;;5.50;4.00;;;;;12.24;57.71;100683.19;5034841;27;45453;-67
2022/05/30 00:32:06;;;;;;;;;2.00;2.00;;;;;12.25;58.45;100680.47;5078460;27;47356;-65
2022/05/30 00:34:31;;;;;;;;;3.25;3.00;;;;;12.20;57.82;100674.53;5137425;27;45556;-66
2022/05/30 00:36:57;;;;;;;;;2.00;2.00;;;;;12.21;58.27;100688.72;5083160;27;45335;-64
2022/05/30 00:39:22;;;;;;;;;3.00;3.00;;;;;12.20;58.63;100676.34;5027418;27;45335;-65
2022/05/30 00:41:47;;;;;;;;;5.00;5.00;;;;;12.18;58.67;100671.13;5021047;27;45261;-64
2022/05/30 00:44:13;;;;;;;;;2.00;2.00;;;;;12.22;58.58;100677.09;5034053;28;45432;-64
2022/05/30 00:46:39;;;;;;;;;3.00;3.00;;;;;12.20;59.82;100679.00;5033010;27;45498;-65
2022/05/30 00:49:13;;;;;;;;;3.50;3.50;;;;;12.09;59.33;100666.34;5034192;27;45552;-64
2022/05/30 00:51:45;;;;;;;;;3.75;2.25;;;;;12.05;59.88;100664.81;5033705;27;45561;-64
2022/05/30 00:54:15;;;;;;;;;3.00;2.00;;;;;12.06;59.67;100672.72;5029372;27;45397;-68
2022/05/30 00:56:45;;;;;;;;;6.50;4.00;;;;;12.00;59.56;100669.59;5033477;27;45479;-68
2022/05/30 00:59:12;;;;;;;;;2.00;2.00;;;;;12.05;59.72;100675.47;5018606;27;45324;-66
2022/05/30 01:01:38;;;;;;;;;6.00;5.00;;;;;12.05;58.91;100670.16;5033644;27;46186;-63
2022/05/30 01:06:56;;;;;;;;;6.00;6.00;;;;;11.97;60.54;100651.09;5033509;27;45442;-66
2022/05/30 01:09:34;;;;;;;;;6.00;4.00;;;;;11.94;59.97;100665.47;5032036;27;45575;-67
2022/05/30 01:12:06;;;;;;;;;4.00;4.00;;;;;11.89;61.11;100656.91;5033012;28;45404;-67
2022/05/30 01:14:38;;;;;;;;;2.50;2.50;;;;;11.82;60.79;100653.72;5027754;27;45523;-66
2022/05/30 01:17:10;;;;;;;;;2.00;2.00;;;;;11.77;61.19;100652.28;5034069;28;45336;-67
2022/05/30 01:20:07;;;;;;;;;6.00;3.33;;;;;11.77;60.95;100650.47;5033019;27;45542;-68
2022/05/30 01:22:38;;;;;;;;;3.00;3.00;;;;;11.74;61.40;100652.47;5033090;28;45401;-67
2022/05/30 01:25:26;;;;;;;;;3.75;2.50;;;;;11.72;61.46;100649.91;5033054;27;45259;-66
2022/05/30 01:28:22;;;;;;;;;3.00;3.00;;;;;11.78;60.61;100646.84;5031674;27;46919;-66
2022/05/30 01:30:48;;;;;;;;;2.00;2.00;;;;;11.77;61.46;100649.59;5029929;27;45460;-64
2022/05/30 01:33:14;;;;;;;;;3.00;3.00;;;;;11.70;61.99;100648.25;5114263;27;46596;-68
2022/05/30 01:35:40;;;;;;;;;2.33;2.33;;;;;11.64;62.04;100644.16;5048998;27;45382;-69
2022/05/30 01:38:05;;;;;;;;;7.00;4.00;;;;;11.64;61.87;100646.81;5033837;27;45340;-66
2022/05/30 01:40:31;;;;;;;;;6.00;6.00;;;;;11.65;60.96;100640.53;5028241;27;45881;-68
2022/05/30 01:42:57;;;;;;;;;4.00;4.00;;;;;11.70;61.42;100646.44;5027445;28;46058;-64
2022/05/30 01:45:24;;;;;;;;;7.75;6.25;;;;;11.72;61.61;100652.56;5028143;27;46733;-65
2022/05/30 01:47:49;;;;;;;;;4.75;3.50;;;;;11.59;62.63;100656.91;5026472;27;45270;-66
2022/05/30 01:50:15;;;;;;;;;3.50;3.50;;;;;11.52;62.82;100650.22;5031300;27;45406;-67
2022/05/30 01:52:41;;;;;;;;;4.75;3.75;;;;;11.49;62.12;100647.72;5049065;28;47029;-64
2022/05/30 01:55:07;;;;;;;;;2.50;2.50;;;;;11.50;61.94;100652.09;5032023;27;45575;-66
2022/05/30 01:57:33;;;;;;;;;7.50;3.50;;;;;11.53;61.53;100647.44;5034172;27;45385;-67
2022/05/30 01:59:58;;;;;;;;;6.00;4.00;;;;;11.57;61.49;100653.44;5023013;27;45641;-65
2022/05/30 02:02:23;;;;;;;;;3.25;3.00;;;;;11.54;61.50;100656.28;5023342;27;45773;-65
2022/05/30 02:04:50;;;;;;;;;2.75;2.75;;;;;11.53;61.17;100657.25;5027846;27;45428;-65
2022/05/30 02:07:16;;;;;;;;;2.00;2.00;;;;;11.51;61.17;100649.34;5027864;27;45281;-67
2022/05/30 02:09:41;;;;;;;;;2.00;2.00;;;;;11.57;61.37;100653.44;5013820;28;45534;-66
2022/05/30 02:12:07;;;;;;;;;4.00;2.00;;;;;11.58;61.51;100657.81;5016721;27;45740;-65
2022/05/30 02:14:33;;;;;;;;;4.75;3.00;;;;;11.52;62.61;100655.53;5039498;28;45477;-66
2022/05/30 02:17:01;;;;;;;;;3.25;3.25;;;;;11.38;62.00;100642.19;5041080;27;45817;-63
2022/05/30 02:19:33;;;;;;;;;2.00;2.00;;;;;11.49;62.07;100650.41;5032449;28;45345;-64
2022/05/30 02:22:00;;;;;;;;;1.00;1.00;;;;;11.52;62.67;100650.22;5030346;27;46157;-64
2022/05/30 02:24:25;;;;;;;;;3.25;3.25;;;;;11.50;62.11;100652.09;5032988;28;45355;-64
2022/05/30 02:26:51;;;;;;;;;3.67;3.67;;;;;11.47;62.27;100646.97;5031839;27;45272;-66
2022/05/30 02:29:16;;;;;;;;;3.00;3.00;;;;;11.47;62.48;100649.63;5033154;28;45658;-65
2022/05/30 02:31:42;;;;;;;;;4.50;4.50;;;;;11.43;62.07;100650.75;5061611;27;46308;-64
2022/05/30 02:36:52;;;;;;;;;2.75;2.75;;;;;11.25;63.62;100651.81;5025594;27;45519;-65
2022/05/30 02:39:21;;;;;;;;;6.25;3.50;;;;;11.18;63.56;100652.16;5024708;27;45642;-65
2022/05/30 02:41:47;;;;;;;;;5.75;3.00;;;;;11.20;63.34;100650.28;5034135;27;46228;-66
2022/05/30 02:44:14;;;;;;;;;4.25;4.25;;;;;11.22;62.56;100653.72;5033311;28;45258;-65
2022/05/30 02:46:40;;;;;;;;;3.25;2.25;;;;;11.24;62.35;100658.97;5031773;27;45595;-65
2022/05/30 02:49:06;;;;;;;;;5.75;5.75;;;;;11.21;63.50;100656.47;5033058;28;45263;-65
2022/05/30 02:51:32;;;;;;;;;3.33;3.33;;;;;11.17;64.03;100657.56;5030735;27;45506;-64
2022/05/30 02:53:57;;;;;;;;;4.25;4.25;;;;;11.15;63.00;100655.00;5031786;28;45392;-66
2022/05/30 02:56:23;;;;;;;;;3.00;3.00;;;;;11.17;63.57;100655.78;5026838;27;45484;-66
2022/05/30 02:58:48;;;;;;;;;7.00;5.00;;;;;11.20;62.55;100644.13;5014685;28;45592;-66
2022/05/30 03:01:15;;;;;;;;;5.00;5.00;;;;;11.23;62.48;100646.59;5020049;27;47529;-65
2022/05/30 03:03:41;;;;;;;;;4.50;3.50;;;;;11.23;63.26;100643.94;5024664;27;45334;-68
2022/05/30 03:06:07;;;;;;;;;5.00;3.33;;;;;11.18;63.21;100641.50;5016292;27;45377;-68
2022/05/30 03:08:32;;;;;;;;;5.50;2.00;;;;;11.12;63.12;100639.22;5034469;27;45639;-65
2022/05/30 03:10:58;;;;;;;;;6.00;3.75;;;;;11.16;63.22;100654.06;5016730;27;46243;-65
2022/05/30 03:13:23;;;;;;;;;6.50;4.25;;;;;11.18;62.65;100652.16;5030715;27;45289;-67
2022/05/30 03:15:49;;;;;;;;;3.50;3.50;;;;;11.21;63.30;100654.66;5025073;27;45383;-67
2022/05/30 03:18:14;;;;;;;;;4.25;4.25;;;;;11.19;63.21;100659.19;5021682;27;45283;-67
2022/05/30 03:20:40;;;;;;;;;6.50;3.50;;;;;11.10;62.47;100643.78;5023608;27;45310;-65
2022/05/30 03:23:06;;;;;;;;;7.50;3.00;;;;;11.10;62.07;100643.78;5030446;27;45295;-67
2022/05/30 03:25:31;;;;;;;;;6.25;4.25;;;;;11.15;62.72;100668.31;5015622;27;45363;-64
2022/05/30 03:27:57;;;;;;;;;4.50;4.50;;;;;11.14;62.51;100658.63;5033279;27;45595;-65
2022/05/30 03:30:23;;;;;;;;;4.50;4.50;;;;;11.14;62.34;100655.97;5035026;27;46225;-66
2022/05/30 03:32:49;;;;;;;;;6.50;5.50;;;;;11.13;63.57;100662.22;5029548;27;45350;-66
2022/05/30 03:35:16;;;;;;;;;6.75;6.75;;;;;11.08;62.40;100656.31;5050106;27;45710;-64
2022/05/30 03:37:43;;;;;;;;;4.75;4.75;;;;;10.99;62.97;100653.31;5033187;27;45530;-64
2022/05/30 03:40:12;;;;;;;;;6.75;5.00;;;;;10.98;63.51;100655.13;5035128;28;45272;-64
2022/05/30 03:42:38;;;;;;;;;7.50;6.00;;;;;11.06;63.38;100652.00;5035093;27;45485;-68
2022/05/30 03:45:05;;;;;;;;;7.50;7.00;;;;;11.03;63.51;100657.50;5015173;28;45414;-67
2022/05/30 03:47:39;;;;;;;;;6.00;3.00;;;;;10.97;63.71;100652.56;5027896;27;45578;-65
2022/05/30 03:50:06;;;;;;;;;7.00;6.00;;;;;10.96;63.94;100657.00;5014509;27;46130;-67
2022/05/30 03:52:32;;;;;;;;;5.00;5.00;;;;;10.96;63.72;100657.00;5029937;27;45403;-65
2022/05/30 03:54:57;;;;;;;;;7.00;7.00;;;;;10.93;63.74;100654.50;5034113;27;45431;-66
2022/05/30 03:57:23;;;;;;;;;7.50;6.50;;;;;10.92;63.48;100658.13;5022784;27;45222;-66
2022/05/30 03:59:48;;;;;;;;;7.00;7.00;;;;;10.91;63.53;100659.06;5021584;28;46137;-67
2022/05/30 04:02:14;;;;;;;;;10.75;8.50;;;;;10.92;64.00;100668.75;5033918;27;45367;-67
2022/05/30 04:04:39;;;;;;;;;5.50;4.25;;;;;10.90;64.48;100667.97;5034303;27;45923;-65
2022/05/30 04:07:05;;;;;;;;;7.75;6.25;;;;;10.92;64.22;100674.06;5036044;27;45516;-65
2022/05/30 04:09:31;;;;;;;;;4.75;4.75;;;;;10.88;63.82;100676.06;5031848;27;45328;-65
2022/05/30 04:11:56;;;;;;;;;9.00;6.75;;;;;10.88;63.97;100672.53;5033882;27;45269;-66
2022/05/30 04:14:22;;;;;;;;;8.50;7.00;;;;;10.87;63.05;100678.81;5035089;28;45375;-64
2022/05/30 04:16:47;;;;;;;;;7.25;5.50;;;;;10.91;63.65;100683.00;5033365;27;45456;-66
2022/05/30 04:19:13;;;;;;;;;7.00;7.00;;;;;10.82;63.56;100683.53;5034602;28;46125;-66
2022/05/30 04:21:39;;;;;;;;;7.00;7.00;;;;;10.76;64.25;100695.34;5049423;27;45490;-66
2022/05/30 04:24:04;;;;;;;;;7.50;5.75;;;;;10.76;64.37;100692.69;5030228;27;45540;-71
2022/05/30 04:26:30;;;;;;;;;7.00;7.00;;;;;10.78;63.95;100689.94;5040166;27;45449;-64
2022/05/30 04:28:55;;;;;;;;;6.00;6.00;;;;;10.74;64.22;100683.09;5033986;27;45314;-68
2022/05/30 04:31:21;;;;;;;;;6.25;5.25;;;;;10.77;64.00;100688.22;5045446;27;45468;-65
2022/05/30 04:33:46;;;;;;;;;3.50;3.50;;;;;10.76;63.21;100691.84;5042572;28;45472;-65
2022/05/30 04:36:13;;;;;;;;;9.75;7.50;;;;;10.74;63.46;100689.28;5029222;27;45932;-63
2022/05/30 04:38:38;;;;;;;;;7.00;7.00;;;;;10.76;64.20;100690.03;5023832;27;45516;-65
2022/05/30 04:41:04;;;;;;;;;6.00;6.00;;;;;10.79;63.74;100686.34;5034403;28;45236;-65
2022/05/30 04:43:30;;;;;;;;;7.75;6.50;;;;;10.78;63.39;100685.50;5081952;27;45744;-65
2022/05/30 04:46:07;;;;;;;;;8.25;7.00;;;;;10.79;63.35;100683.69;5029823;27;45645;-68
2022/05/30 04:48:32;;;;;;;;;7.50;7.00;;;;;10.78;63.38;100685.50;5036974;27;45583;-65
2022/05/30 04:50:58;;;;;;;;;6.50;6.50;;;;;10.80;63.61;100693.38;5050231;27;45563;-67
2022/05/30 04:53:23;;;;;;;;;7.50;6.25;;;;;10.78;63.88;100689.94;5029412;28;45546;-66
2022/05/30 04:55:49;;;;;;;;;6.25;6.25;;;;;10.80;63.11;100698.69;5020252;27;45515;-69
2022/05/30 04:58:14;;;;;;;;;5.50;5.25;;;;;10.83;62.57;100695.91;5027908;28;45353;-64
2022/05/30 05:00:40;;;;;;;;;7.50;7.50;;;;;10.80;63.57;100694.25;5040520;27;45629;-69
2022/05/30 05:03:05;;;;;;;;;6.75;6.75;;;;;10.83;63.27;100703.88;5035393;27;45440;-67
2022/05/30 05:05:31;;;;;;;;;12.00;8.00;;;;;10.87;62.55;100705.41;5019087;27;45519;-68
2022/05/30 05:08:25;;;;;;;;;10.00;6.75;;;;;10.88;62.96;100701.81;5026273;27;45733;-63
2022/05/30 05:11:03;;;;;;;;;8.00;6.75;;;;;10.94;61.94;100706.81;5050112;28;45447;-63
2022/05/30 05:13:29;;;;;;;;;5.00;5.00;;;;;10.94;62.48;100701.47;5033610;28;45299;-66
2022/05/30 05:15:58;;;;;;;;;6.50;6.00;;;;;10.93;62.94;100710.38;5044458;28;45623;-66
2022/05/30 05:18:23;;;;;;;;;6.50;6.50;;;;;10.95;62.51;100708.53;5058848;27;46160;-66
2022/05/30 05:20:49;;;;;;;;;12.00;9.00;;;;;10.95;62.73;100703.19;5051569;28;45410;-65
2022/05/30 05:23:14;;;;;;;;;9.75;8.50;;;;;11.02;62.10;100715.19;5048425;28;45517;-68
2022/05/30 05:25:41;;;;;;;;;9.00;8.50;;;;;11.02;62.31;100709.88;5054085;27;45483;-69
2022/05/30 05:28:07;;;;;;;;;14.00;7.25;;;;;11.02;62.32;100707.22;5052527;28;47333;-66
2022/05/30 05:30:33;;;;;;;;;6.75;6.75;;;;;11.05;62.27;100703.53;5054332;28;45443;-63
2022/05/30 05:32:59;;;;;;;;;9.75;8.00;;;;;11.13;61.59;100707.47;5038324;27;45314;-67
2022/05/30 05:35:24;;;;;;;;;6.50;6.50;;;;;11.14;62.28;100709.19;5086041;27;45649;-63
2022/05/30 05:37:51;;;;;;;;;7.50;7.50;;;;;11.18;61.83;100705.41;5064051;27;46006;-69
2022/05/30 05:40:17;;;;;;;;;11.00;7.00;;;;;11.18;61.79;100710.72;5033062;27;45255;-64
2022/05/30 05:42:42;;;;;;;;;6.00;6.00;;;;;11.22;61.52;100706.97;5015925;27;45304;-68
2022/05/30 05:45:08;;;;;;;;;12.50;7.00;;;;;11.24;61.57;100712.19;5025319;27;45637;-67
2022/05/30 05:47:34;;;;;;;;;8.25;6.50;;;;;11.26;61.03;100712.97;5032842;27;46235;-63
2022/05/30 05:50:01;;;;;;;;;12.25;8.25;;;;;11.30;61.57;100719.81;5021883;27;45440;-69
2022/05/30 05:52:28;;;;;;;;;8.75;7.50;;;;;11.35;61.19;100715.09;5020202;27;45410;-70
2022/05/30 05:54:57;;;;;;;;;7.75;7.75;;;;;11.42;61.31;100728.91;5029179;27;45657;-64
2022/05/30 05:57:23;;;;;;;;;8.25;7.00;;;;;11.38;60.96;100720.25;5027775;27;45449;-65
2022/05/30 05:59:49;;;;;;;;;7.75;6.50;;;;;11.43;61.52;100731.50;5013684;28;45490;-66
2022/05/30 06:02:14;;;;;;;;;6.25;6.25;;;;;11.43;60.79;100719.97;5029297;28;45400;-68
2022/05/30 06:04:40;;;;;;;;;11.75;7.75;;;;;11.48;60.98;100723.25;5032859;27;45361;-68
2022/05/30 06:07:06;;;;;;;;;13.00;11.00;;;;;11.54;60.86;100720.22;5025925;27;45549;-64
2022/05/30 06:09:32;;;;;;;;;8.00;6.00;;;;;11.57;60.91;100728.03;5022776;27;45545;-63
2022/05/30 06:11:59;;;;;;;;;8.00;7.00;;;;;11.53;60.47;100723.84;5022975;28;45398;-68
2022/05/30 06:14:25;;;;;;;;;8.00;7.00;;;;;11.55;60.77;100737.91;5024312;27;45222;-64
2022/05/30 06:16:50;;;;;;;;;9.75;7.00;;;;;11.59;60.85;100731.50;5029530;28;45508;-66
2022/05/30 06:19:16;;;;;;;;;7.75;7.75;;;;;11.58;60.58;100724.41;5031359;27;45325;-66
2022/05/30 06:21:41;;;;;;;;;7.25;5.50;;;;;11.63;60.90;100732.16;5031644;27;45479;-66
2022/05/30 06:24:08;;;;;;;;;7.25;5.75;;;;;11.62;60.60;100730.44;5022251;27;45474;-66
2022/05/30 06:26:35;;;;;;;;;7.75;7.75;;;;;11.56;60.00;100707.66;5031843;27;47003;-66
2022/05/30 06:29:01;;;;;;;;;6.50;6.50;;;;;11.71;60.84;100727.22;5028043;27;45535;-68
2022/05/30 06:31:30;;;;;;;;;10.50;10.50;;;;;11.77;60.27;100726.88;5034297;27;45450;-68
2022/05/30 06:33:56;;;;;;;;;8.75;8.25;;;;;11.73;59.88;100712.88;5138644;27;45258;-67
2022/05/30 06:36:24;;;;;;;;;7.75;6.50;;;;;11.85;60.22;100729.09;5049190;27;46275;-69
2022/05/30 06:38:50;;;;;;;;;10.25;10.25;;;;;11.79;60.18;100728.53;5023396;28;45465;-68
2022/05/30 06:41:19;;;;;;;;;8.00;8.00;;;;;11.89;59.72;100736.00;5031222;28;45823;-66
2022/05/30 06:43:45;;;;;;;;;7.00;7.00;;;;;11.98;59.95;100738.97;5033409;28;45471;-65
2022/05/30 06:46:13;;;;;;;;;10.00;7.00;;;;;12.06;59.39;100739.34;5061111;27;45292;-62
2022/05/30 06:48:38;;;;;;;;;7.50;6.75;;;;;12.10;59.10;100737.34;5064939;27;45449;-62
2022/05/30 06:51:07;;;;;;;;;5.33;5.33;;;;;12.14;58.97;100732.72;5045781;27;45514;-64
2022/05/30 06:53:33;;;;;;;;;7.33;4.00;;;;;12.23;58.85;100738.34;5036684;27;45398;-65
2022/05/30 06:55:59;;;;;;;;;9.50;6.75;;;;;12.27;58.96;100737.22;5054920;27;45494;-64
2022/05/30 06:58:25;;;;;;;;;6.75;6.75;;;;;12.29;58.58;100732.66;5051094;28;45380;-64
2022/05/30 07:00:51;;;;;;;;;7.50;7.50;;;;;12.31;58.42;100724.56;5042382;28;45418;-63
2022/05/30 07:03:17;;;;;;;;;6.00;6.00;;;;;12.31;58.53;100725.41;5060366;27;45220;-64
2022/05/30 07:05:45;;;;;;;;;7.50;7.00;;;;;12.38;58.33;100732.09;5058670;27;45529;-63
2022/05/30 07:08:15;;;;;;;;;8.50;7.25;;;;;12.48;57.95;100731.50;5013370;27;45416;-65
2022/05/30 07:10:41;;;;;;;;;6.75;6.75;;;;;12.52;58.09;100731.25;5087132;27;45476;-63
2022/05/30 07:13:06;;;;;;;;;18.00;14.25;;;;;12.55;57.88;100722.19;5030395;28;45456;-64
2022/05/30 07:15:37;;;;;;;;;3.67;3.67;;;;;12.63;57.61;100719.88;5029209;28;46249;-64
2022/05/30 07:18:14;;;;;;;;;6.75;6.75;;;;;12.62;57.34;100719.03;5011729;27;45680;-65
2022/05/30 07:20:40;;;;;;;;;8.25;7.00;;;;;12.66;57.43;100727.72;5031578;28;45394;-64
2022/05/30 07:23:06;;;;;;;;;6.00;4.33;;;;;12.69;57.29;100731.03;5026992;28;45268;-60
2022/05/30 07:25:37;;;;;;;;;6.00;6.00;;;;;12.74;56.82;100732.56;5027467;27;45481;-63
2022/05/30 07:28:03;;;;;;;;;4.00;4.00;;;;;12.81;57.14;100729.41;5065146;27;45260;-64
2022/05/30 07:30:29;;;;;;;;;10.67;8.33;;;;;12.85;57.02;100725.59;5078001;27;45502;-65
2022/05/30 07:32:56;;;;;;;;;8.00;8.00;;;;;12.90;57.14;100715.50;5048833;28;45393;-62
2022/05/30 07:35:22;;;;;;;;;4.00;4.00;;;;;12.96;56.03;100731.09;5051036;27;46268;-65
2022/05/30 07:37:50;;;;;;;;;7.00;4.00;;;;;12.96;55.97;100717.75;5018583;27;45303;-65
2022/05/30 07:40:15;;;;;;;;;5.00;5.00;;;;;13.05;55.69;100721.66;5042769;27;45486;-66
2022/05/30 07:42:41;;;;;;;;;5.33;5.33;;;;;13.09;55.18;100717.84;5031334;28;45818;-64
2022/05/30 07:45:08;;;;;;;;;6.67;4.00;;;;;13.19;55.18;100728.81;5034826;28;45545;-62
2022/05/30 07:47:34;;;;;;;;;4.00;4.00;;;;;13.25;55.00;100723.06;5057875;27;45590;-62
2022/05/30 07:50:02;;;;;;;;;7.00;2.67;;;;;13.30;54.02;100722.78;5100642;27;45335;-62
2022/05/30 07:52:30;;;;;;;;;5.33;5.33;;;;;13.25;52.77;100710.56;5121789;27;45551;-63
2022/05/30 07:54:56;;;;;;;;;3.00;3.00;;;;;13.32;53.81;100712.84;5040055;28;46322;-64
2022/05/30 07:57:50;;;;;;;;;8.00;6.00;;;;;13.42;53.29;100720.16;5033661;27;45778;-63
2022/05/30 08:00:07;;;;;;;;;39.75;32.25;;;;;13.42;53.54;100709.47;5015069;28;45421;-66
2022/05/30 08:02:33;;;;;;;;;5.67;4.00;;;;;13.50;53.03;100709.81;5015091;28;45520;-62
2022/05/30 08:04:59;;;;;;;;;3.67;3.67;;;;;13.58;52.67;100714.66;5014524;28;45392;-67
2022/05/30 08:07:25;;;;;;;;;2.67;2.67;;;;;13.62;51.20;100723.31;5054803;27;46503;-64
2022/05/30 08:09:50;;;;;;;;;4.00;4.00;;;;;13.53;51.71;100706.94;5044086;28;45367;-65
2022/05/30 08:12:16;;;;;;;;;7.67;4.00;;;;;13.65;51.82;100725.78;5034320;28;45577;-67
2022/05/30 08:14:41;;;;;;;;;3.67;2.00;;;;;13.65;51.18;100721.28;5087244;27;45709;-69
2022/05/30 08:17:07;;;;;;;;;8.00;4.33;;;;;13.70;51.06;100713.00;5133951;27;45366;-66
2022/05/30 08:19:33;;;;;;;;;5.67;4.00;;;;;13.99;49.97;100717.22;5028599;27;45250;-67
2022/05/30 08:22:04;;;;;;;;;3.00;3.00;;;;;14.51;50.31;100720.81;5014592;28;45448;-66
2022/05/30 08:24:38;;;;;;;;;4.00;3.00;;;;;14.97;48.21;100719.25;5074170;27;47415;-65
2022/05/30 08:27:03;;;;;;;;;4.00;2.67;;;;;15.59;47.09;100710.19;5014247;27;45403;-66
2022/05/30 08:29:29;;;;;;;;;4.00;4.00;;;;;16.24;47.68;100701.66;5034948;27;45478;-65
2022/05/30 08:31:55;;;;;;;;;3.67;3.67;;;;;16.87;43.53;100704.78;5076790;27;45440;-67
2022/05/30 08:34:21;;;;;;;;;4.67;3.00;;;;;17.38;43.83;100695.16;5053893;28;45371;-66
2022/05/30 08:36:46;;;;;;;;;4.33;2.67;;;;;17.67;43.04;100697.22;5053473;28;45389;-66
2022/05/30 08:41:57;;;;;;;;;4.00;3.00;;;;;18.69;40.63;100688.44;5132768;27;45380;-65
2022/05/30 08:44:23;;;;;;;;;3.33;3.00;;;;;19.07;39.10;100686.88;5137315;27;46174;-63
2022/05/30 08:46:57;;;;;;;;;4.00;2.67;;;;;19.44;39.83;100678.97;5138214;27;45525;-64
2022/05/30 08:49:31;;;;;;;;;2.33;2.33;;;;;19.83;37.75;100687.13;5139373;27;45391;-64
2022/05/30 08:52:18;;;;;;;;;3.00;3.00;;;;;20.21;35.89;100681.66;5140167;27;45252;-64
2022/05/30 08:55:15;;;;;;;;;2.00;2.00;;;;;20.43;35.68;100682.31;5138884;27;46272;-64
2022/05/30 08:57:53;;;;;;;;;3.00;1.67;;;;;20.83;34.84;100671.19;5056149;27;45408;-66
2022/05/30 09:00:38;;;;;;;;;2.00;2.00;;;;;20.92;35.02;100678.41;5034244;28;45411;-65
2022/05/30 09:03:17;;;;;;;;;2.75;2.75;;;;;21.11;35.25;100674.75;5033415;28;45768;-62
2022/05/30 09:06:01;;;;;;;;;2.00;2.00;;;;;21.30;35.06;100668.41;5033009;28;46111;-66
2022/05/30 09:08:39;;;;;;;;;1.00;1.00;;;;;21.51;34.46;100665.41;5033970;28;45355;-66
2022/05/30 09:11:15;;;;;;;;;4.00;2.00;;;;;21.59;33.62;100674.44;5034091;28;45345;-65
2022/05/30 09:13:46;;;;;;;;;4.00;2.75;;;;;21.74;33.23;100672.88;5032191;27;45407;-65
2022/05/30 09:16:30;;;;;;;;;6.00;2.25;;;;;21.72;35.36;100677.59;5049175;28;48102;-65
2022/05/30 09:18:58;;;;;;;;;3.00;2.00;;;;;21.85;33.86;100679.03;5033843;28;45264;-65
2022/05/30 09:21:27;;;;;;;;;3.00;3.00;;;;;22.04;32.57;100676.16;5033974;28;45361;-66
2022/05/30 09:23:52;;;;;;;;;4.00;2.50;;;;;22.02;32.34;100667.34;5034106;28;45528;-64
2022/05/30 09:26:40;;;;;;;;;1.50;1.50;;;;;22.01;31.03;100663.81;5032504;27;47557;-65
2022/05/30 09:29:14;;;;;;;;;1.50;1.50;;;;;22.03;33.06;100658.22;5033783;27;45337;-67
2022/05/30 09:32:00;;;;;;;;;6.25;4.75;;;;;21.98;33.06;100655.13;5027512;27;45404;-63
2022/05/30 09:34:38;;;;;;;;;3.50;2.00;;;;;22.35;32.01;100663.03;5014312;28;45498;-63
2022/05/30 09:37:05;;;;;;;;;4.00;2.00;;;;;22.50;31.60;100656.00;5012462;27;47694;-64
2022/05/30 09:39:46;;;;;;;;;2.00;2.00;;;;;22.73;30.89;100655.44;5012822;28;45447;-63
2022/05/30 09:42:32;;;;;;;;;2.50;2.50;;;;;23.01;32.56;100651.50;5037710;27;45296;-66
2022/05/30 09:45:10;;;;;;;;;2.25;2.25;;;;;23.13;31.19;100647.47;5033940;28;45267;-64
2022/05/30 09:47:36;;;;;;;;;2.00;2.00;;;;;23.33;29.00;100634.47;5032414;27;45398;-65
2022/05/30 09:50:14;;;;;;;;;3.20;2.00;;;;;23.50;29.99;100638.03;5025469;28;45522;-66
2022/05/30 09:52:41;;;;;;;;;4.25;2.75;;;;;23.43;29.64;100645.97;5049101;28;45373;-65
2022/05/30 09:55:32;;;;;;;;;3.00;3.00;;;;;23.69;30.42;100642.28;5033786;28;45466;-64
2022/05/30 09:57:59;;;;;;;;;3.75;1.75;;;;;23.47;29.55;100641.09;5033356;28;46122;-64
2022/05/30 10:00:27;;;;;;;;;1.25;1.25;;;;;23.65;30.52;100638.22;5032014;28;45444;-67
2022/05/30 10:03:27;;;;;;;;;1.00;1.00;;;;;23.57;28.21;100636.34;5033275;27;45225;-64
2022/05/30 10:06:10;;;;;;;;;2.00;2.00;;;;;23.82;29.00;100642.63;5030612;27;45449;-66
2022/05/30 10:08:36;;;;;;;;;2.00;2.00;;;;;23.45;27.89;100641.25;5033142;28;45609;-68
2022/05/30 10:11:01;;;;;;;;;1.75;1.75;;;;;23.07;28.36;100634.56;5033156;27;45430;-65
2022/05/30 10:13:34;;;;;;;;;1.50;1.50;;;;;23.09;28.43;100634.41;5033314;28;45493;-64
2022/05/30 10:16:02;;;;;;;;;3.00;3.00;;;;;23.31;29.89;100633.78;5031845;28;45672;-65
2022/05/30 10:18:44;;;;;;;;;1.50;1.50;;;;;23.43;28.65;100635.13;5032866;28;45993;-64
2022/05/30 10:21:09;;;;;;;;;1.75;1.75;;;;;23.27;29.70;100629.69;5032106;27;45800;-66
2022/05/30 10:30:17;;;;;;;;;1.00;1.00;;;;;22.90;29.56;100627.38;5018428;28;45377;-68
2022/05/30 10:32:55;;;;;;;;;3.25;2.00;;;;;22.51;30.09;100625.16;5028302;28;45871;-66
2022/05/30 10:35:29;;;;;;;;;5.75;4.25;;;;;22.27;29.79;100639.47;5013552;28;45235;-63
2022/05/30 10:38:03;;;;;;;;;2.00;2.00;;;;;21.45;30.31;100645.22;5028541;27;45519;-67
2022/05/30 10:40:41;;;;;;;;;5.33;5.33;;;;;20.83;31.83;100639.63;5012576;28;46200;-66
2022/05/30 10:43:26;;;;;;;;;1.75;1.75;;;;;20.55;32.52;100638.75;5012701;27;45433;-66
2022/05/30 10:45:58;;;;;;;;;2.00;2.00;;;;;20.56;31.79;100645.00;5013206;28;45217;-63
2022/05/30 10:48:28;;;;;;;;;1.50;1.50;;;;;20.51;32.59;100641.91;5012293;28;45263;-67
2022/05/30 10:51:02;;;;;;;;;2.75;2.75;;;;;20.46;32.52;100652.34;5012276;27;45315;-67
2022/05/30 10:53:53;;;;;;;;;3.00;3.00;;;;;20.34;32.78;100654.31;5012424;28;45442;-68
2022/05/30 10:56:26;;;;;;;;;2.33;2.33;;;;;20.35;32.90;100647.06;5021715;27;45469;-64
2022/05/30 10:59:13;;;;;;;;;3.00;3.00;;;;;20.35;32.16;100639.81;5032925;28;45685;-64
2022/05/30 11:01:46;;;;;;;;;2.00;2.00;;;;;20.22;32.44;100639.28;5029691;28;45400;-67
2022/05/30 11:04:18;;;;;;;;;2.00;2.00;;;;;20.20;32.66;100644.00;5032497;28;45328;-67
2022/05/30 11:06:47;;;;;;;;;2.00;2.00;;;;;20.28;32.32;100644.09;5032519;28;45274;-66
2022/05/30 11:09:28;;;;;;;;;1.00;1.00;;;;;20.21;31.71;100646.56;5032455;28;45480;-66
2022/05/30 11:12:20;;;;;;;;;4.00;2.00;;;;;20.20;32.26;100641.28;5032028;28;46668;-65
2022/05/30 11:15:02;;;;;;;;;2.00;2.00;;;;;20.15;32.23;100639.00;5062902;27;45317;-66
2022/05/30 11:17:34;;;;;;;;;2.00;2.00;;;;;20.08;32.24;100645.16;5137824;27;45360;-69
2022/05/30 11:20:20;;;;;;;;;2.00;2.00;;;;;19.90;32.47;100634.25;5140010;27;45432;-67
2022/05/30 11:22:48;;;;;;;;;2.00;2.00;;;;;19.79;32.93;100632.53;5141063;27;46221;-66
2022/05/30 11:25:50;;;;;;;;;4.00;3.00;;;;;20.01;32.79;100637.63;5140618;27;45361;-67
2022/05/30 11:28:15;;;;;;;;;1.33;1.00;;;;;20.09;33.06;100636.06;5139499;27;45409;-68
2022/05/30 11:31:00;;;;;;;;;4.00;3.00;;;;;19.93;32.63;100637.53;5042846;27;45291;-68
2022/05/30 11:33:28;;;;;;;;;2.67;2.67;;;;;19.72;33.25;100629.59;5035028;28;45395;-68
2022/05/30 11:36:42;;;;;;;;;6.00;4.00;;;;;19.48;33.47;100633.69;5035393;27;45332;-65
2022/05/30 11:39:33;;;;;;;;;2.00;2.00;;;;;19.23;33.61;100635.09;5035141;28;45365;-62
2022/05/30 11:42:12;;;;;;;;;2.00;2.00;;;;;19.20;34.07;100628.16;5035815;28;45192;-68
2022/05/30 11:45:02;;;;;;;;;1.00;1.00;;;;;19.21;34.57;100624.47;5043635;27;45479;-64
2022/05/30 11:47:49;;;;;;;;;4.00;3.00;;;;;19.10;34.07;100627.28;5030541;27;45507;-67
2022/05/30 11:50:27;;;;;;;;;1.00;1.00;;;;;18.90;33.37;100620.16;5015086;28;45418;-63